Time;durP1;ratioP1;P1;durP2;ratioP2;P2;SDS_P1;SDS_P2;PMS_P1;PMS_P2;Temp;Humidity;BMP_temperature;BMP_pressure;BME280_temperature;BME280_humidity;BME280_pressure;Samples;Min_cycle;Max_cycle;Signal;HPM_P1;HPM_P2
2022/01/02 00:00:19;;;;;;;5.97;2.83;;;11.20;99.90;;;9.26;81.00;100928.59;10390777;28;98362;-78
2022/01/02 00:05:23;;;;;;;4.80;2.50;;;11.10;99.90;;;9.18;81.57;100908.09;10373672;28;98491;-79
2022/01/02 00:10:34;;;;;;;2.87;1.83;;;11.10;99.90;;;9.23;80.85;100904.97;10373589;28;97000;-79
2022/01/02 00:15:37;;;;;;;4.32;2.10;;;11.00;99.90;;;9.22;80.54;100917.41;10374233;28;96706;-79
2022/01/02 00:20:47;;;;;;;4.87;2.20;;;11.10;99.90;;;9.11;80.76;100909.59;10373933;28;96655;-79
2022/01/02 00:25:53;;;;;;;3.40;2.10;;;11.00;99.90;;;9.01;80.98;100908.78;10354232;28;96624;-79
2022/01/02 00:30:58;;;;;;;4.10;2.70;;;10.90;99.90;;;8.86;81.41;100918.97;10381004;28;96729;-79
2022/01/02 00:36:04;;;;;;;4.27;2.27;;;10.80;99.90;;;8.65;81.88;100919.09;10364341;28;96652;-77
2022/01/02 00:41:08;;;;;;;5.03;2.27;;;10.60;99.90;;;8.53;82.73;100931.63;10386521;28;96709;-79
2022/01/02 00:46:14;;;;;;;6.27;2.87;;;10.50;99.90;;;8.43;83.13;100932.56;10388918;28;99035;-79
2022/01/02 00:51:27;;;;;;;5.47;2.77;;;10.40;99.90;;;8.26;83.64;100924.28;10370722;28;96499;-80
2022/01/02 00:56:32;;;;;;;5.90;2.60;;;10.30;99.90;;;8.13;83.99;100933.44;10386932;28;96688;-79
2022/01/02 01:01:36;;;;;;;4.13;2.67;;;10.10;99.90;;;7.94;84.67;100929.75;10382525;28;97740;-79
2022/01/02 01:06:41;;;;;;;5.27;3.27;;;10.00;99.90;;;7.77;85.00;100928.53;10392952;28;96635;-80
2022/01/02 01:11:45;;;;;;;5.43;3.40;;;9.80;99.90;;;7.63;86.16;100936.00;10386718;28;97613;-80
2022/01/02 01:16:49;;;;;;;4.60;3.10;;;9.70;99.90;;;7.59;86.86;100934.56;10378028;28;98414;-80
2022/01/02 01:21:52;;;;;;;5.97;3.33;;;9.60;99.90;;;7.51;87.26;100932.59;10389993;28;96643;-79
2022/01/02 01:26:56;;;;;;;5.13;2.93;;;9.50;99.90;;;7.47;87.91;100931.16;10384782;27;96773;-79
2022/01/02 01:32:04;;;;;;;7.23;3.90;;;9.50;99.90;;;7.46;88.27;100925.03;10359407;28;96891;-80
2022/01/02 01:37:07;;;;;;;7.83;3.90;;;9.40;99.90;;;7.39;88.35;100918.59;10387416;28;96953;-79
2022/01/02 01:42:12;;;;;;;7.40;3.13;;;9.40;99.90;;;7.33;88.64;100934.16;10380655;28;98349;-79
2022/01/02 01:47:15;;;;;;;5.30;3.57;;;9.30;99.90;;;7.31;88.88;100925.50;10402615;28;97269;-79
2022/01/02 01:52:18;;;;;;;6.80;3.40;;;9.30;99.90;;;7.21;88.80;100921.00;10384933;28;96580;-79
2022/01/02 01:57:24;;;;;;;7.40;4.27;;;9.20;99.90;;;7.07;88.81;100918.63;10392625;28;97435;-79
2022/01/02 02:02:27;;;;;;;6.10;4.07;;;9.10;99.90;;;6.88;89.02;100931.69;10394375;27;96814;-79
2022/01/02 02:07:38;;;;;;;7.30;3.97;;;9.00;99.90;;;6.73;89.27;100932.97;10377703;28;96869;-79
2022/01/02 02:12:45;;;;;;;5.10;3.30;;;8.80;99.90;;;6.58;89.51;100922.69;10400138;28;96630;-79
2022/01/02 02:17:52;;;;;;;7.33;3.53;;;8.70;99.90;;;6.48;90.04;100911.19;10393522;28;98290;-79
2022/01/02 02:22:57;;;;;;;5.67;3.77;;;8.60;99.90;;;6.47;91.20;100922.69;10372462;28;97165;-79
2022/01/02 02:28:07;;;;;;;9.73;4.60;;;8.50;99.90;;;6.49;91.61;100920.78;10360458;28;97224;-79
2022/01/02 02:33:11;;;;;;;7.90;4.03;;;8.50;99.90;;;6.41;91.72;100912.63;10387167;28;98675;-79
2022/01/02 02:38:18;;;;;;;9.07;4.43;;;8.40;99.90;;;6.32;92.04;100900.19;10375684;28;96725;-79
2022/01/02 02:53:55;;;;;;;12.67;5.40;;;8.30;99.90;;;6.44;93.88;100909.75;10383056;28;98402;-79
2022/01/02 02:58:58;;;;;;;11.70;5.67;;;8.40;99.90;;;6.49;94.25;100901.47;10389693;28;96662;-79
2022/01/02 03:04:01;;;;;;;8.50;5.03;;;8.40;99.90;;;6.47;93.83;100903.38;10374845;28;96689;-80
2022/01/02 03:09:09;;;;;;;7.07;4.23;;;8.40;99.90;;;6.35;93.61;100902.56;10373736;28;98361;-79
2022/01/02 03:14:13;;;;;;;9.13;4.50;;;8.40;99.90;;;6.14;93.19;100900.69;10400033;28;96912;-79
2022/01/02 03:19:16;;;;;;;10.03;5.20;;;8.20;99.90;;;5.98;93.34;100897.59;10369461;28;97650;-79
2022/01/02 03:24:19;;;;;;;11.73;5.63;;;8.10;99.90;;;5.85;93.52;100892.41;10388488;28;96809;-79
2022/01/02 03:29:23;;;;;;;10.90;5.13;;;8.00;99.90;;;5.69;93.55;100893.72;10376978;28;96613;-79
2022/01/02 03:34:32;;;;;;;10.90;4.40;;;7.80;99.90;;;5.49;93.50;100890.00;10389166;28;96935;-79
2022/01/02 03:39:36;;;;;;;10.77;5.37;;;7.70;99.90;;;5.33;93.67;100874.53;10401544;28;98037;-79
2022/01/02 03:44:39;;;;;;;11.30;5.47;;;7.50;99.90;;;5.18;93.82;100883.63;10393002;27;97425;-79
2022/01/02 03:49:42;;;;;;;8.23;4.70;;;7.30;99.90;;;5.04;94.22;100884.66;10395090;28;96665;-79
2022/01/02 03:54:45;;;;;;;10.30;4.43;;;7.20;99.90;;;4.89;94.20;100885.78;10373750;28;97762;-79
2022/01/02 03:59:48;;;;;;;13.70;7.73;;;7.10;99.90;;;4.74;94.41;100875.47;10367140;27;98422;-80
2022/01/02 04:04:50;;;;;;;17.03;8.30;;;6.90;99.90;;;4.69;95.08;100874.13;10396310;28;97477;-79
2022/01/02 04:10:01;;;;;;;13.33;6.80;;;6.80;99.90;;;4.63;95.42;100885.94;10382759;28;97083;-80
2022/01/02 04:15:07;;;;;;;12.00;6.10;;;6.80;99.90;;;4.56;95.79;100892.63;10397815;28;96763;-80
2022/01/02 04:20:14;;;;;;;14.67;7.63;;;6.70;99.90;;;4.49;96.11;100897.47;10378465;28;98470;-80
2022/01/02 04:25:16;;;;;;;17.63;8.80;;;6.60;99.90;;;4.46;96.37;100887.16;10398413;28;96624;-80
2022/01/02 04:30:19;;;;;;;16.33;9.10;;;6.50;99.90;;;4.42;96.55;100887.50;10386451;28;96709;-80
2022/01/02 04:35:23;;;;;;;14.20;8.63;;;6.50;99.90;;;4.32;96.59;100891.75;10386369;28;96849;-80
2022/01/02 04:40:26;;;;;;;23.93;9.37;;;6.40;99.90;;;4.26;96.77;100885.16;10392314;28;98453;-80
2022/01/02 04:45:29;;;;;;;16.73;8.20;;;6.40;99.90;;;4.16;96.95;100886.75;10398792;28;97727;-80
2022/01/02 04:50:32;;;;;;;16.97;9.23;;;6.30;99.90;;;4.07;96.96;100892.66;10389519;28;97850;-79
2022/01/02 04:55:35;;;;;;;17.80;8.23;;;6.20;99.90;;;3.98;97.02;100884.50;10397389;28;96966;-79
2022/01/02 05:00:38;;;;;;;14.47;8.10;;;6.10;99.90;;;3.92;97.21;100894.59;10403352;28;97374;-79
2022/01/02 05:05:41;;;;;;;16.60;7.10;;;6.10;99.90;;;3.85;97.55;100888.09;10390776;28;97091;-79
2022/01/02 05:10:47;;;;;;;18.87;8.83;;;6.00;99.90;;;3.74;97.63;100873.06;10395088;27;97035;-79
2022/01/02 05:15:50;;;;;;;16.07;8.00;;;5.90;99.90;;;3.67;97.64;100884.97;10388279;28;96566;-78
2022/01/02 05:20:54;;;;;;;14.77;6.23;;;5.80;99.90;;;3.60;98.01;100892.44;10377279;28;96648;-78
2022/01/02 05:25:57;;;;;;;14.00;6.47;;;5.70;99.90;;;3.71;98.72;100882.00;10379929;28;97365;-78
2022/01/02 05:31:00;;;;;;;26.17;11.10;;;5.80;99.90;;;3.75;99.18;100883.47;10365394;28;96726;-78
2022/01/02 05:36:03;;;;;;;30.63;13.37;;;5.80;99.90;;;3.72;99.34;100890.75;10385164;28;96583;-78
2022/01/02 05:41:07;;;;;;;38.17;19.10;;;5.80;99.90;;;3.63;99.72;100878.22;10388510;28;97046;-78
2022/01/02 05:46:10;;;;;;;27.17;14.40;;;5.70;99.90;;;3.56;99.40;100884.88;10384538;28;97086;-78
2022/01/02 05:51:13;;;;;;;24.90;12.03;;;5.70;99.90;;;3.48;99.40;100869.63;10392534;28;97111;-78
2022/01/02 05:56:16;;;;;;;20.90;10.90;;;5.60;99.90;;;3.41;99.50;100873.59;10376943;28;96564;-78
2022/01/02 06:01:18;;;;;;;15.43;8.50;;;5.60;99.90;;;3.31;99.65;100870.78;10381496;28;98323;-78
2022/01/02 06:06:21;;;;;;;13.67;6.37;;;5.50;99.90;;;3.21;99.76;100874.97;10393298;28;96482;-78
2022/01/02 06:11:25;;;;;;;19.27;8.07;;;5.40;99.90;;;3.11;99.64;100876.53;10382276;28;97071;-78
2022/01/02 06:16:31;;;;;;;24.07;10.00;;;5.30;99.90;;;3.09;99.95;100874.03;10385586;28;98346;-78
2022/01/02 06:21:35;;;;;;;33.03;13.00;;;5.30;99.90;;;3.05;99.92;100867.28;10387952;27;96869;-82
2022/01/02 06:26:38;;;;;;;30.20;12.47;;;5.20;99.90;;;2.99;99.98;100864.22;10389675;28;96709;-78
2022/01/02 06:31:40;;;;;;;30.40;12.57;;;5.20;99.90;;;2.94;99.98;100868.03;10376306;28;96559;-79
2022/01/02 06:36:43;;;;;;;28.13;11.73;;;5.10;99.90;;;2.91;100.00;100875.25;10383964;28;96669;-77
2022/01/02 06:41:46;;;;;;;26.03;11.13;;;5.10;99.90;;;2.85;100.00;100858.13;10376825;28;96972;-78
2022/01/02 06:46:49;;;;;;;27.30;12.47;;;5.10;99.90;;;2.82;100.00;100860.09;10381708;28;97416;-78
2022/01/02 06:51:52;;;;;;;31.00;13.27;;;5.00;99.90;;;2.80;100.00;100864.63;10386429;28;96650;-78
2022/01/02 06:56:55;;;;;;;19.53;10.33;;;5.00;99.90;;;2.88;100.00;100881.56;10392259;28;96947;-78
2022/01/02 07:01:58;;;;;;;25.43;12.60;;;5.00;99.90;;;3.07;100.00;100877.72;10391185;28;97250;-78
2022/01/02 07:07:01;;;;;;;23.43;12.20;;;5.00;99.90;;;3.33;100.00;100874.13;10384795;28;96632;-80
2022/01/02 07:12:08;;;;;;;22.93;11.90;;;5.10;99.90;;;3.58;100.00;100890.84;10386458;28;97847;-81
2022/01/02 07:17:11;;;;;;;16.93;8.80;;;5.20;99.90;;;3.66;100.00;100894.63;10386918;28;98639;-82
2022/01/02 07:22:14;;;;;;;19.33;9.23;;;5.30;99.90;;;3.72;100.00;100896.00;10389646;28;97405;-78
2022/01/02 07:27:20;;;;;;;22.20;10.97;;;5.50;99.90;;;3.88;100.00;100872.94;10372377;28;97886;-80
2022/01/02 07:32:23;;;;;;;17.50;10.67;;;5.60;99.90;;;3.90;100.00;100891.22;10382730;28;97431;-78
2022/01/02 07:37:26;;;;;;;28.97;15.87;;;5.70;99.90;;;4.09;100.00;100878.47;10403692;27;96618;-78
2022/01/02 07:42:32;;;;;;;24.90;12.93;;;5.70;99.90;;;4.57;100.00;100871.44;10392882;28;98228;-78
2022/01/02 07:47:38;;;;;;;24.47;14.10;;;6.00;99.90;;;5.02;100.00;100882.13;10392818;28;96771;-78
2022/01/02 07:52:41;;;;;;;25.23;14.30;;;6.30;99.90;;;5.29;99.21;100873.94;10395109;28;97144;-78
2022/01/02 07:57:45;;;;;;;27.50;15.17;;;6.50;99.90;;;5.71;98.03;100862.81;10387935;28;96867;-78
2022/01/02 08:02:48;;;;;;;26.50;15.20;;;6.70;99.90;;;6.12;96.99;100855.13;10390814;28;97090;-79
2022/01/02 08:07:51;;;;;;;17.40;12.13;;;7.00;99.90;;;6.60;96.03;100838.91;10391448;28;96572;-79
2022/01/02 08:12:55;;;;;;;19.57;11.17;;;7.30;99.90;;;7.06;94.38;100839.50;10386144;28;98045;-79
2022/01/02 08:17:58;;;;;;;19.00;11.23;;;7.70;99.90;;;7.48;93.22;100840.28;10384423;28;97026;-79
2022/01/02 08:23:01;;;;;;;14.10;9.77;;;8.10;99.90;;;7.92;91.95;100830.31;10383069;28;96890;-78
2022/01/02 08:28:04;;;;;;;10.70;7.50;;;8.60;99.90;;;8.33;90.38;100830.06;10400892;28;97940;-79
2022/01/02 08:33:07;;;;;;;15.47;6.93;;;9.10;99.90;;;8.79;88.98;100831.22;10389240;28;96636;-79
2022/01/02 08:38:13;;;;;;;11.73;8.23;;;9.60;99.90;;;9.20;86.73;100821.25;10392632;28;97634;-79
2022/01/02 08:43:16;;;;;;;12.70;8.50;;;10.00;99.90;;;9.60;85.00;100810.38;10379476;28;97096;-79
2022/01/02 08:48:18;;;;;;;10.60;7.63;;;10.50;99.90;;;9.99;83.02;100804.00;10382377;28;98078;-79
2022/01/02 08:53:21;;;;;;;12.57;8.07;;;10.90;99.90;;;10.32;81.29;100798.09;10385397;28;98469;-76
2022/01/02 08:58:24;;;;;;;13.00;7.70;;;11.30;99.90;;;10.26;78.85;100803.19;10377593;28;97040;-76
2022/01/02 09:03:27;;;;;;;15.77;8.87;;;11.50;99.90;;;9.82;78.40;100798.50;10391301;28;98317;-76
2022/01/02 09:08:30;;;;;;;11.43;7.40;;;11.40;99.90;;;9.32;78.59;100801.53;10383301;28;98379;-77
2022/01/02 09:13:33;;;;;;;12.70;8.43;;;11.20;99.90;;;9.00;79.67;100804.56;10381547;28;96652;-79
2022/01/02 09:18:36;;;;;;;11.77;8.20;;;10.90;99.90;;;9.30;80.31;100803.50;10387607;28;98883;-79
2022/01/02 09:23:39;;;;;;;14.40;8.23;;;11.00;99.90;;;9.95;79.35;100807.94;10387167;28;98304;-80
2022/01/02 09:28:42;;;;;;;10.00;7.03;;;11.30;99.90;;;10.20;77.37;100793.97;10381550;28;97347;-79
2022/01/02 09:33:48;;;;;;;15.77;9.00;;;11.60;99.90;;;10.09;76.49;100788.84;10378153;28;98016;-79
2022/01/02 09:38:52;;;;;;;12.30;8.47;;;11.60;99.90;;;9.70;77.23;100770.50;10381759;28;97103;-79
2022/01/02 09:43:56;;;;;;;15.67;9.47;;;11.50;99.90;;;9.31;78.44;100748.66;10382109;28;96936;-79
2022/01/02 09:49:01;;;;;;;17.87;11.03;;;11.20;99.90;;;8.99;79.32;100763.09;10388900;28;97028;-79
2022/01/02 09:54:06;;;;;;;17.73;11.63;;;11.00;99.90;;;8.78;80.66;100744.75;10382173;28;96918;-79
2022/01/02 09:59:10;;;;;;;16.40;10.23;;;10.80;99.90;;;8.56;81.12;100740.59;10387916;27;98053;-79
2022/01/02 10:04:13;;;;;;;18.00;12.00;;;10.60;99.90;;;8.46;82.13;100734.50;10385020;28;96624;-79
2022/01/02 10:09:36;;;;;;;20.90;12.73;;;10.40;99.90;;;8.44;82.86;100730.31;10386600;28;98240;-79
2022/01/02 10:14:42;;;;;;;18.40;12.33;;;10.40;99.90;;;8.42;83.44;100733.09;10384312;28;96938;-79
2022/01/02 10:19:45;;;;;;;20.07;12.27;;;10.30;99.90;;;8.45;83.86;100721.38;10386292;28;97213;-79
2022/01/02 10:24:48;;;;;;;16.33;11.00;;;10.30;99.90;;;8.55;84.22;100701.03;10397024;28;96782;-79
2022/01/02 10:29:56;;;;;;;19.70;11.30;;;10.40;99.90;;;8.70;84.12;100683.72;10403937;28;97212;-77
2022/01/02 10:35:21;;;;;;;16.60;11.20;;;10.50;99.90;;;8.93;83.79;100684.16;10375541;28;98263;-77
2022/01/02 10:40:36;;;;;;;17.20;11.10;;;10.70;99.90;;;9.06;82.60;100673.25;10383633;28;96778;-79
2022/01/02 10:45:47;;;;;;;14.33;10.80;;;10.80;99.90;;;9.08;81.94;100669.47;10380771;28;97052;-79
2022/01/02 10:51:15;;;;;;;14.50;10.30;;;10.90;99.90;;;9.09;81.45;100652.56;10367197;28;96745;-78
2022/01/02 10:56:22;;;;;;;14.70;10.50;;;10.90;99.90;;;9.35;81.91;100636.78;10384123;28;97877;-78
2022/01/02 11:01:30;;;;;;;14.93;9.50;;;11.10;99.90;;;9.85;81.13;100630.16;10381569;28;99238;-79
2022/01/02 11:06:36;;;;;;;15.07;9.80;;;11.40;99.90;;;10.00;80.09;100625.97;10392249;28;96899;-79
2022/01/02 11:11:38;;;;;;;19.60;11.17;;;11.60;99.90;;;10.10;79.19;100612.59;10387193;28;96887;-79
2022/01/02 11:16:42;;;;;;;17.60;11.33;;;11.80;99.90;;;10.10;78.58;100600.16;10401429;28;96712;-79
2022/01/02 11:21:52;;;;;;;15.70;11.27;;;11.80;99.90;;;10.08;78.67;100591.53;10364634;28;98329;-79
2022/01/02 11:27:41;;;;;;;15.53;10.47;;;11.90;99.90;;;10.04;78.61;100576.88;10381928;28;98179;-78
2022/01/02 11:33:10;;;;;;;14.17;10.03;;;11.90;99.90;;;10.03;78.75;100572.56;10261358;28;97153;-78
2022/01/02 11:38:17;;;;;;;16.40;11.47;;;11.90;99.90;;;9.98;77.95;100558.91;10368450;28;97890;-78
2022/01/02 11:43:47;;;;;;;16.97;9.80;;;11.80;99.90;;;10.02;78.31;100546.19;10383736;28;96749;-78
2022/01/02 11:49:14;;;;;;;15.43;10.23;;;11.80;99.90;;;10.09;77.84;100537.44;10389050;28;96996;-78
2022/01/02 11:54:33;;;;;;;14.03;9.63;;;11.90;99.90;;;10.18;77.92;100523.19;10383667;28;96623;-78
2022/01/02 11:59:38;;;;;;;14.07;9.93;;;12.00;99.90;;;10.30;77.05;100510.50;10387852;28;96633;-78
2022/01/02 12:04:59;;;;;;;15.17;10.47;;;12.10;99.90;;;10.43;77.17;100504.75;10396899;28;96763;-78
2022/01/02 12:10:17;;;;;;;17.07;12.23;;;12.20;99.90;;;10.58;76.24;100497.03;10387905;28;98311;-78
2022/01/02 12:15:20;;;;;;;19.17;10.93;;;12.30;99.90;;;10.69;75.43;100478.13;10379696;28;96972;-78
2022/01/02 12:20:23;;;;;;;15.87;10.03;;;12.40;99.90;;;10.83;74.61;100477.50;10369363;28;96799;-78
2022/01/02 12:25:26;;;;;;;15.67;9.63;;;12.60;99.90;;;10.98;74.69;100467.91;10393694;28;97525;-78
2022/01/02 12:30:29;;;;;;;17.50;11.60;;;12.70;99.90;;;11.16;73.90;100464.25;10388838;28;98848;-78
2022/01/02 12:35:38;;;;;;;14.40;8.80;;;12.90;99.90;;;11.34;73.39;100450.81;10391827;28;96621;-78
2022/01/02 12:40:41;;;;;;;12.03;7.23;;;13.10;99.90;;;11.54;71.18;100454.78;10394261;28;98265;-78
2022/01/02 12:45:54;;;;;;;8.70;5.83;;;13.20;99.90;;;11.66;70.45;100449.94;10381826;28;98268;-78
2022/01/02 12:51:09;;;;;;;10.80;5.93;;;13.30;99.90;;;11.71;69.36;100447.59;10397935;28;99134;-78
2022/01/02 12:56:12;;;;;;;12.90;9.10;;;13.40;99.90;;;11.68;69.50;100459.41;10398987;27;96592;-78
2022/01/02 13:01:15;;;;;;;9.23;5.73;;;13.50;99.90;;;11.62;69.16;100443.28;10390351;28;99029;-80
2022/01/02 13:06:20;;;;;;;9.93;6.33;;;13.40;99.90;;;11.56;69.10;100438.63;10382614;28;97931;-79
2022/01/02 13:11:35;;;;;;;16.63;9.47;;;13.40;99.90;;;11.55;68.74;100440.47;10384628;28;96833;-80
2022/01/02 13:16:38;;;;;;;7.93;5.93;;;13.40;99.90;;;11.58;68.89;100433.97;10388467;28;96877;-80
2022/01/02 13:21:42;;;;;;;10.30;5.93;;;13.40;99.90;;;11.63;68.72;100428.97;10383420;28;96750;-80
2022/01/02 13:26:47;;;;;;;11.60;6.07;;;13.40;99.90;;;11.64;67.87;100423.50;10386701;28;96950;-80
2022/01/02 13:31:56;;;;;;;8.97;5.10;;;13.40;99.90;;;11.60;67.74;100422.16;10396012;27;98328;-80
2022/01/02 13:37:02;;;;;;;6.77;4.67;;;13.40;99.90;;;11.49;67.77;100407.38;10388536;28;96598;-80
2022/01/02 13:42:06;;;;;;;7.47;5.67;;;13.30;99.90;;;11.38;68.05;100413.03;10378168;28;98871;-80
2022/01/02 13:47:11;;;;;;;8.57;5.27;;;13.20;99.90;;;11.28;68.35;100406.25;10397275;28;98508;-80
2022/01/02 13:52:22;;;;;;;11.40;5.07;;;13.10;99.90;;;11.15;69.00;100404.88;10380185;28;98666;-79
2022/01/02 13:57:30;;;;;;;10.70;6.03;;;13.00;99.90;;;11.00;69.62;100414.53;10378856;28;97235;-80
2022/01/02 14:02:39;;;;;;;12.97;9.03;;;12.90;99.90;;;10.82;70.33;100412.03;10373185;28;98114;-80
2022/01/02 14:07:43;;;;;;;14.97;8.83;;;12.70;99.90;;;10.65;71.23;100413.81;10377696;28;96682;-80
2022/01/02 14:12:57;;;;;;;8.83;6.00;;;12.60;99.90;;;10.46;72.05;100403.47;10385448;28;96889;-79
2022/01/02 14:18:03;;;;;;;9.07;5.97;;;12.40;99.90;;;10.30;73.11;100393.63;10381412;28;96882;-79
2022/01/02 14:23:06;;;;;;;10.90;8.10;;;12.30;99.90;;;10.20;73.95;100382.31;10381743;28;96611;-78
2022/01/02 14:28:15;;;;;;;12.87;7.20;;;12.10;99.90;;;10.12;74.77;100388.38;10386579;28;97055;-78
2022/01/02 14:33:21;;;;;;;11.80;6.77;;;12.00;99.90;;;10.04;75.09;100390.19;10391437;28;96623;-79
2022/01/02 14:38:24;;;;;;;9.60;6.00;;;12.00;99.90;;;9.94;75.53;100392.97;10386393;27;96837;-78
2022/01/02 14:43:27;;;;;;;17.83;9.30;;;11.90;99.90;;;9.81;76.13;100388.09;10384886;28;98967;-79
2022/01/02 14:48:31;;;;;;;17.37;13.27;;;11.70;99.90;;;9.68;76.95;100390.34;10374732;28;97240;-79
2022/01/02 14:53:36;;;;;;;36.53;17.43;;;11.60;99.90;;;9.53;77.60;100389.25;10381114;28;97098;-80
2022/01/02 14:58:41;;;;;;;45.50;24.23;;;11.50;99.90;;;9.36;78.22;100393.63;10384784;28;98165;-78
2022/01/02 15:03:44;;;;;;;38.40;17.73;;;11.30;99.90;;;9.17;79.05;100394.63;10393196;27;98331;-78
2022/01/02 15:08:51;;;;;;;27.53;13.90;;;11.20;99.90;;;8.95;79.71;100385.38;10379035;28;96731;-78
2022/01/02 15:13:54;;;;;;;33.70;18.07;;;11.00;99.90;;;8.76;80.55;100386.34;10393014;27;97728;-77
2022/01/02 15:18:57;;;;;;;30.37;15.90;;;10.80;99.90;;;8.56;80.93;100387.47;10384536;28;96649;-77
2022/01/02 15:24:00;;;;;;;32.07;16.00;;;10.70;99.90;;;8.36;81.72;100383.28;10389073;28;96793;-77
2022/01/02 15:29:03;;;;;;;36.27;19.70;;;10.50;99.90;;;8.17;82.41;100385.03;10394002;28;96777;-77
2022/01/02 15:34:06;;;;;;;31.70;18.50;;;10.30;99.90;;;7.98;82.70;100390.44;10385752;28;97221;-77
2022/01/02 15:39:09;;;;;;;28.80;17.03;;;10.10;99.90;;;7.79;83.21;100386.88;10374611;28;98009;-77
2022/01/02 15:44:12;;;;;;;32.30;17.97;;;9.90;99.90;;;7.63;83.82;100369.97;10385713;28;96564;-77
2022/01/02 15:49:15;;;;;;;39.33;20.17;;;9.70;99.90;;;7.42;84.44;100367.50;10394755;28;97290;-77
2022/01/02 15:54:19;;;;;;;30.73;16.13;;;9.60;99.90;;;7.27;85.33;100366.31;10379883;28;97224;-77
2022/01/02 15:59:21;;;;;;;25.40;15.57;;;9.40;99.90;;;7.15;86.12;100355.91;10401182;28;96671;-78
2022/01/02 16:04:24;;;;;;;28.53;16.07;;;9.20;99.90;;;7.07;87.10;100357.56;10379056;27;98775;-77
2022/01/02 16:09:28;;;;;;;21.27;12.97;;;9.10;99.90;;;7.00;87.72;100341.44;10372630;28;98571;-77
2022/01/02 16:14:31;;;;;;;22.37;13.97;;;9.10;99.90;;;6.97;88.56;100344.38;10368400;28;97679;-78
2022/01/02 16:19:34;;;;;;;29.77;16.37;;;9.00;99.90;;;6.95;89.02;100343.66;10347994;28;98355;-78
2022/01/02 16:24:38;;;;;;;29.67;17.67;;;9.00;99.90;;;6.93;89.50;100346.47;10370628;28;98472;-77
2022/01/02 16:29:41;;;;;;;26.13;16.43;;;8.90;99.90;;;6.84;89.51;100343.84;10362136;28;97703;-78
2022/01/02 16:34:44;;;;;;;26.83;16.00;;;8.90;99.90;;;6.75;89.62;100342.03;10365491;27;97958;-78
2022/01/02 16:39:47;;;;;;;30.40;16.60;;;8.80;99.90;;;6.63;89.39;100328.97;10372411;28;98862;-78
2022/01/02 16:44:50;;;;;;;31.87;19.07;;;8.70;99.90;;;6.52;89.50;100315.91;10315764;28;98841;-77
2022/01/02 16:49:53;;;;;;;31.50;19.20;;;8.60;99.90;;;6.41;89.78;100329.22;10352965;28;98928;-78
2022/01/02 16:54:57;;;;;;;30.13;18.23;;;8.50;99.90;;;6.33;90.25;100344.94;10326963;28;97381;-78
2022/01/02 17:00:03;;;;;;;32.43;18.13;;;8.40;99.90;;;6.22;90.51;100348.50;10339343;28;96687;-78
2022/01/02 17:05:07;;;;;;;41.40;22.57;;;8.30;99.90;;;6.16;91.03;100343.78;10345624;28;98095;-78
2022/01/02 17:10:11;;;;;;;38.23;23.00;;;8.20;99.90;;;6.09;91.52;100318.91;10357735;28;97405;-78
2022/01/02 17:15:18;;;;;;;40.50;23.40;;;8.20;99.90;;;6.02;91.75;100321.28;10318743;28;97218;-77
2022/01/02 17:20:37;;;;;;;35.60;19.17;;;8.10;99.90;;;5.99;92.31;100340.00;10318170;28;97131;-77
2022/01/02 17:25:41;;;;;;;26.67;15.70;;;8.00;99.90;;;5.98;92.53;100329.59;10343332;28;96636;-78
2022/01/02 17:30:44;;;;;;;25.77;13.97;;;8.00;99.90;;;5.97;92.89;100328.75;10334903;28;97683;-77
2022/01/02 17:35:49;;;;;;;27.67;16.47;;;8.00;99.90;;;6.00;93.33;100315.31;10350820;28;98615;-77
2022/01/02 17:40:52;;;;;;;22.37;13.00;;;8.00;99.90;;;6.01;93.76;100276.56;10351329;28;96910;-77
2022/01/02 17:45:55;;;;;;;25.20;14.60;;;8.00;99.90;;;6.02;93.75;100246.56;10366208;28;97686;-77
2022/01/02 17:51:01;;;;;;;23.07;12.47;;;8.00;99.90;;;5.99;93.55;100258.22;10362091;28;98088;-77
2022/01/02 17:56:04;;;;;;;26.37;14.70;;;8.00;99.90;;;5.93;93.58;100252.66;10364993;28;96829;-77
2022/01/02 18:01:07;;;;;;;20.90;12.27;;;8.00;99.90;;;5.91;93.90;100273.91;10346705;28;97490;-77
2022/01/02 18:06:10;;;;;;;44.30;22.30;;;7.90;99.90;;;5.90;94.04;100254.56;10353625;28;98102;-77
2022/01/02 18:11:13;;;;;;;29.07;17.53;;;7.90;99.90;;;5.92;94.55;100267.66;10350160;28;96593;-77
2022/01/02 18:16:16;;;;;;;25.83;14.33;;;7.90;99.90;;;5.90;94.72;100280.94;10345488;28;98553;-77
2022/01/02 18:21:19;;;;;;;30.77;16.23;;;7.90;99.90;;;5.92;94.89;100286.13;10365402;28;97527;-77
2022/01/02 18:26:25;;;;;;;23.07;14.40;;;7.90;99.90;;;5.97;95.42;100278.63;10360130;28;97275;-77
2022/01/02 18:31:28;;;;;;;31.07;15.13;;;7.90;99.90;;;5.99;95.43;100263.50;10365198;28;97992;-77
2022/01/02 18:36:31;;;;;;;25.93;14.00;;;7.90;99.90;;;5.98;95.53;100261.00;10357007;28;97755;-77
2022/01/02 18:41:35;;;;;;;31.93;17.17;;;7.90;99.90;;;5.94;95.59;100242.00;10364929;28;97783;-77
2022/01/02 18:46:38;;;;;;;34.47;18.97;;;7.90;99.90;;;5.93;95.62;100247.38;10346832;28;96950;-77
2022/01/02 18:51:42;;;;;;;26.27;15.23;;;7.90;99.90;;;5.87;96.00;100262.75;10371753;27;97112;-77
2022/01/02 18:56:45;;;;;;;34.40;19.00;;;7.90;99.90;;;5.84;95.68;100270.13;10392583;28;97274;-77
2022/01/02 19:01:48;;;;;;;28.13;14.83;;;7.80;99.90;;;5.76;95.77;100272.59;10386341;28;98753;-77
2022/01/02 19:06:51;;;;;;;28.43;14.83;;;7.80;99.90;;;5.67;95.81;100276.03;10365508;28;97302;-77
2022/01/02 19:11:54;;;;;;;23.83;13.60;;;7.70;99.90;;;5.58;96.00;100254.78;10378662;28;98307;-77
2022/01/02 19:17:00;;;;;;;25.53;15.40;;;7.60;99.90;;;5.48;96.02;100240.75;10363107;28;97839;-77
2022/01/02 19:22:04;;;;;;;23.23;11.73;;;7.50;99.90;;;5.36;96.15;100241.81;10382490;28;97013;-77
2022/01/02 19:27:07;;;;;;;21.53;12.10;;;7.40;99.90;;;5.22;96.22;100236.91;10364565;28;98369;-77
2022/01/02 19:32:10;;;;;;;24.60;13.27;;;7.30;99.90;;;5.05;95.93;100228.66;10385706;28;98418;-77
2022/01/02 19:37:16;;;;;;;23.03;13.77;;;7.20;99.90;;;4.91;96.29;100221.06;10378306;28;97017;-77
2022/01/02 19:42:20;;;;;;;26.53;14.00;;;7.10;99.90;;;4.83;96.33;100221.75;10393179;28;98332;-77
2022/01/02 19:47:23;;;;;;;27.77;16.37;;;7.00;99.90;;;4.79;96.61;100224.75;10375222;27;96615;-77
2022/01/02 19:52:26;;;;;;;39.60;19.60;;;6.90;99.90;;;4.75;96.66;100210.19;10376984;28;96722;-77
2022/01/02 19:57:30;;;;;;;35.60;20.53;;;6.80;99.90;;;4.76;96.76;100209.25;10387435;28;99278;-77
2022/01/02 20:02:35;;;;;;;44.07;22.87;;;6.80;99.90;;;4.75;97.14;100212.84;10367041;28;98772;-79
2022/01/02 20:07:38;;;;;;;33.40;19.17;;;6.80;99.90;;;4.81;97.67;100194.72;10368475;28;98022;-78
2022/01/02 20:12:44;;;;;;;40.57;21.50;;;6.80;99.90;;;4.92;97.82;100200.84;10390705;28;98289;-79
2022/01/02 20:17:47;;;;;;;39.17;19.73;;;6.90;99.90;;;4.99;98.05;100205.47;10375335;28;99467;-79
2022/01/02 20:22:50;;;;;;;40.57;21.93;;;6.90;99.90;;;5.00;97.87;100206.31;10397018;28;98241;-79
2022/01/02 20:27:53;;;;;;;33.23;17.73;;;7.00;99.90;;;5.01;98.10;100206.16;10385911;28;98531;-79
2022/01/02 20:32:56;;;;;;;38.03;19.87;;;7.00;99.90;;;5.00;98.26;100191.34;10366911;28;96865;-80
2022/01/02 20:37:59;;;;;;;37.67;19.70;;;7.00;99.90;;;4.98;98.07;100180.13;10378988;28;97486;-80
2022/01/02 20:43:04;;;;;;;43.10;24.63;;;7.00;99.90;;;4.97;97.98;100167.88;10377765;28;97381;-79
2022/01/02 20:48:10;;;;;;;36.90;18.87;;;7.00;99.90;;;4.93;98.09;100174.41;10359280;28;98443;-79
2022/01/02 20:53:13;;;;;;;31.10;17.10;;;6.90;99.90;;;4.87;98.05;100161.75;10359068;28;98034;-79
2022/01/02 20:58:18;;;;;;;34.57;19.83;;;6.90;99.90;;;4.79;98.00;100161.56;10367645;28;96899;-79
2022/01/02 21:03:23;;;;;;;35.67;20.60;;;6.80;99.90;;;4.74;98.09;100148.81;10361224;28;97090;-79